createdAt,value
2018-01-10T00:01:12.076Z,51.73
2018-01-10T00:03:40.815Z,59.30
2018-01-10T00:06:09.210Z,55.30
2018-01-10T00:08:37.553Z,56.80
2018-01-10T00:11:05.909Z,69.73
2018-01-10T00:13:34.758Z,63.93
2018-01-10T00:16:03.120Z,63.97
2018-01-10T00:18:31.477Z,65.13
2018-01-10T00:20:59.829Z,64.50
2018-01-10T00:23:28.673Z,64.10
2018-01-10T00:25:57.075Z,63.23
2018-01-10T00:28:25.440Z,68.17
2018-01-10T00:30:53.808Z,76.00
2018-01-10T00:33:22.196Z,71.30
2018-01-10T00:35:50.555Z,69.87
2018-01-10T00:38:18.912Z,71.33
2018-01-10T00:40:47.288Z,68.03
2018-01-10T00:43:15.704Z,73.53
2018-01-10T00:45:44.060Z,69.27
2018-01-10T00:48:12.413Z,68.03
2018-01-10T00:50:41.248Z,71.50
2018-01-10T00:53:09.679Z,65.33
2018-01-10T00:55:38.519Z,73.47
2018-01-10T00:58:06.858Z,69.43
2018-01-10T01:00:35.383Z,70.93
2018-01-10T01:03:03.728Z,74.13
2018-01-10T01:05:32.095Z,79.83
2018-01-10T01:08:00.452Z,68.20
2018-01-10T01:10:29.308Z,80.87
2018-01-10T01:12:57.651Z,82.47
2018-01-10T01:15:26.000Z,75.70
2018-01-10T01:17:54.748Z,77.63
2018-01-10T01:20:23.227Z,81.20
2018-01-10T01:22:51.599Z,71.17
2018-01-10T01:25:19.980Z,84.27
2018-01-10T01:27:49.028Z,80.70
2018-01-10T01:30:17.884Z,85.27
2018-01-10T01:32:46.252Z,80.60
2018-01-10T01:35:14.733Z,82.97
2018-01-10T01:37:43.108Z,82.57
2018-01-10T01:40:11.459Z,71.40
2018-01-10T01:42:39.976Z,80.27
2018-01-10T01:45:08.360Z,73.20
2018-01-10T01:47:36.733Z,92.60
2018-01-10T01:50:05.099Z,81.17
2018-01-10T01:52:33.443Z,86.50
2018-01-10T01:55:01.820Z,91.03
2018-01-10T01:57:30.172Z,87.97
2018-01-10T01:59:58.526Z,77.20
2018-01-10T02:02:26.892Z,92.57
2018-01-10T02:04:55.275Z,98.67
2018-01-10T02:07:23.629Z,98.67
2018-01-10T02:09:52.000Z,103.30
2018-01-10T02:12:20.351Z,100.47
2018-01-10T02:14:49.093Z,93.87
2018-01-10T02:17:17.469Z,91.90
2018-01-10T02:19:45.856Z,104.37
2018-01-10T02:22:14.205Z,95.17
2018-01-10T02:24:42.716Z,114.70
2018-01-10T02:27:11.080Z,95.63
2018-01-10T02:29:39.470Z,85.90
2018-01-10T02:32:07.826Z,86.13
2018-01-10T02:34:36.167Z,96.47
2018-01-10T02:37:04.934Z,100.90
2018-01-10T02:39:33.271Z,90.03
2018-01-10T02:42:01.651Z,101.37
2018-01-10T02:44:30.016Z,89.20
2018-01-10T02:46:58.382Z,98.00
2018-01-10T02:49:27.259Z,99.50
2018-01-10T02:51:55.708Z,90.33
2018-01-10T02:54:24.076Z,91.07
2018-01-10T02:56:52.471Z,100.30
2018-01-10T02:59:20.836Z,89.27
2018-01-10T03:01:49.204Z,99.60
2018-01-10T03:04:17.552Z,95.63
2018-01-10T03:06:46.384Z,101.73
2018-01-10T03:09:14.738Z,90.73
2018-01-10T03:11:43.144Z,97.07
2018-01-10T03:14:11.526Z,101.27
2018-01-10T03:16:39.903Z,104.40
2018-01-10T03:19:08.286Z,139.77
2018-01-10T03:21:36.677Z,109.27
2018-01-10T03:24:05.041Z,104.80
2018-01-10T03:26:33.412Z,118.10
2018-01-10T03:29:01.800Z,117.67
2018-01-10T03:31:30.249Z,113.17
2018-01-10T03:33:58.592Z,156.27
2018-01-10T03:36:27.351Z,121.10
2018-01-10T03:38:55.789Z,105.87
2018-01-10T03:41:24.160Z,110.23
2018-01-10T03:43:52.524Z,138.63
2018-01-10T03:46:21.274Z,111.13
2018-01-10T03:48:49.981Z,135.10
2018-01-10T03:51:18.349Z,155.43
2018-01-10T03:53:46.820Z,124.40
2018-01-10T03:56:15.198Z,116.77
2018-01-10T03:58:43.556Z,143.50
2018-01-10T04:01:11.908Z,143.73
2018-01-10T04:03:40.272Z,127.30
2018-01-10T04:06:09.103Z,149.10
2018-01-10T04:08:37.476Z,124.57
2018-01-10T04:11:05.819Z,130.23
2018-01-10T04:13:34.656Z,128.90
2018-01-10T04:16:03.140Z,109.60
2018-01-10T04:18:31.530Z,223.97
2018-01-10T04:21:00.012Z,159.70
2018-01-10T04:23:28.362Z,175.37
2018-01-10T04:25:56.725Z,192.47
2018-01-10T04:28:25.092Z,131.27
2018-01-10T04:30:53.866Z,219.73
2018-01-10T04:33:22.712Z,174.40
2018-01-10T04:35:51.087Z,151.20
2018-01-10T04:38:19.467Z,146.97
2018-01-10T04:40:47.853Z,202.77
2018-01-10T04:43:16.251Z,189.87
2018-01-10T04:45:44.717Z,346.13
2018-01-10T04:48:13.103Z,252.17
2018-01-10T04:50:41.464Z,318.53
2018-01-10T04:53:09.907Z,197.07
2018-01-10T04:55:38.267Z,253.03
2018-01-10T04:58:07.040Z,333.60
2018-01-10T05:00:35.400Z,210.00
2018-01-10T05:03:03.744Z,228.40
2018-01-10T05:05:32.112Z,279.93
2018-01-10T05:08:00.467Z,259.50
2018-01-10T05:10:29.321Z,301.03
2018-01-10T05:12:57.688Z,346.97
2018-01-10T05:15:26.049Z,284.47
2018-01-10T05:17:54.462Z,342.00
2018-01-10T05:20:22.846Z,248.93
2018-01-10T05:22:51.212Z,217.60
2018-01-10T05:25:19.572Z,273.23
2018-01-10T05:27:47.929Z,262.10
2018-01-10T05:30:16.287Z,272.13
2018-01-10T05:32:45.140Z,145.67
2018-01-10T05:35:13.503Z,174.63
2018-01-10T05:37:41.871Z,204.77
2018-01-10T05:40:10.228Z,198.23
2018-01-10T05:42:38.623Z,270.97
2018-01-10T05:45:06.988Z,270.90
2018-01-10T05:47:35.483Z,279.50
2018-01-10T05:50:03.840Z,196.73
2018-01-10T05:52:32.610Z,267.33
2018-01-10T05:55:00.982Z,232.30
2018-01-10T05:57:29.439Z,263.47
2018-01-10T05:59:57.818Z,307.13
2018-01-10T06:02:26.184Z,233.93
2018-01-10T06:04:54.544Z,259.37
2018-01-10T06:07:22.917Z,247.37
2018-01-10T06:09:51.327Z,265.57
2018-01-10T06:12:19.705Z,160.63
2018-01-10T06:14:48.087Z,204.00
2018-01-10T06:17:16.447Z,224.50
2018-01-10T06:19:44.845Z,242.67
2018-01-10T06:22:13.207Z,304.03
2018-01-10T06:24:41.602Z,222.40
2018-01-10T06:27:09.965Z,254.47
2018-01-10T06:29:38.328Z,311.97
2018-01-10T06:32:06.742Z,222.47
2018-01-10T06:34:35.100Z,228.10
2018-01-10T06:37:03.504Z,269.93
2018-01-10T06:39:31.879Z,277.90
2018-01-10T06:42:00.237Z,265.07
2018-01-10T06:44:28.644Z,235.20
2018-01-10T06:46:57.108Z,232.23
2018-01-10T06:49:25.476Z,202.43
2018-01-10T06:51:53.967Z,187.00
2018-01-10T06:54:22.354Z,201.10
2018-01-10T06:56:50.927Z,209.73
2018-01-10T06:59:19.288Z,238.13
2018-01-10T07:01:47.666Z,170.43
2018-01-10T07:04:16.039Z,280.20
2018-01-10T07:06:44.464Z,267.43
2018-01-10T07:09:12.914Z,214.53
2018-01-10T07:11:41.350Z,177.10
2018-01-10T07:14:10.116Z,166.40
2018-01-10T07:16:38.639Z,180.50
2018-01-10T07:19:07.671Z,189.30
2018-01-10T07:21:36.045Z,131.87
2018-01-10T07:24:04.414Z,182.83
2018-01-10T07:26:32.810Z,164.27
2018-01-10T07:29:01.186Z,154.90
2018-01-10T07:31:29.643Z,198.57
2018-01-10T07:33:58.032Z,180.53
2018-01-10T07:36:26.432Z,154.00
2018-01-10T07:38:54.885Z,164.33
2018-01-10T07:41:23.253Z,160.80
2018-01-10T07:43:51.684Z,177.27
2018-01-10T07:46:20.152Z,133.33
2018-01-10T07:48:47.803Z,163.63
2018-01-10T07:51:16.168Z,147.63
2018-01-10T07:53:44.544Z,134.00
2018-01-10T07:56:12.943Z,267.83
2018-01-10T07:58:41.303Z,203.97
2018-01-10T08:01:09.699Z,180.23
2018-01-10T08:03:38.087Z,184.43
2018-01-10T08:06:06.498Z,185.47
2018-01-10T08:08:35.353Z,201.23
2018-01-10T08:11:03.756Z,213.20
2018-01-10T08:13:32.107Z,224.83
2018-01-10T08:16:00.484Z,237.90
2018-01-10T08:18:28.863Z,204.27
2018-01-10T08:20:57.241Z,239.30
2018-01-10T08:23:25.603Z,228.87
2018-01-10T08:25:54.012Z,211.60
2018-01-10T08:28:22.470Z,197.80
2018-01-10T08:30:50.841Z,197.33
2018-01-10T08:33:19.232Z,254.67
2018-01-10T08:35:48.124Z,174.50
2018-01-10T08:38:16.504Z,176.40
2018-01-10T08:40:45.192Z,215.83
2018-01-10T08:43:13.707Z,132.83
2018-01-10T08:45:42.103Z,146.50
2018-01-10T08:48:10.932Z,197.67
2018-01-10T08:50:39.277Z,149.67
2018-01-10T08:53:08.068Z,156.27
2018-01-10T08:55:36.904Z,156.83
2018-01-10T08:58:05.272Z,163.07
2018-01-10T09:00:33.656Z,210.80
2018-01-10T09:03:02.067Z,159.67
2018-01-10T09:05:30.474Z,145.40
2018-01-10T09:07:59.235Z,131.37
2018-01-10T09:10:27.608Z,165.20
2018-01-10T09:12:56.041Z,144.40
2018-01-10T09:15:24.443Z,94.97
2018-01-10T09:17:52.823Z,120.10
2018-01-10T09:20:21.172Z,108.43
2018-01-10T09:22:49.553Z,158.80
2018-01-10T09:25:17.971Z,182.23
2018-01-10T09:27:46.952Z,87.27
2018-01-10T09:30:15.378Z,103.20
2018-01-10T09:32:44.208Z,115.80
2018-01-10T09:35:12.592Z,148.00
2018-01-10T09:37:40.974Z,101.00
2018-01-10T09:40:09.330Z,73.80
2018-01-10T09:42:37.711Z,94.63
2018-01-10T09:45:06.090Z,101.83
2018-01-10T09:47:34.473Z,79.10
2018-01-10T09:50:02.820Z,69.17
2018-01-10T09:52:31.574Z,85.47
2018-01-10T09:54:59.945Z,77.00
2018-01-10T09:57:28.328Z,97.40
2018-01-10T09:59:56.800Z,130.50
2018-01-10T10:02:25.196Z,159.10
2018-01-10T10:04:53.557Z,95.37
2018-01-10T10:07:21.919Z,80.53
2018-01-10T10:09:50.280Z,98.50
2018-01-10T10:12:18.762Z,170.00
2018-01-10T10:14:47.104Z,86.33
2018-01-10T10:17:15.659Z,100.40
2018-01-10T10:19:44.145Z,109.00
2018-01-10T10:22:12.572Z,107.63
2018-01-10T10:24:41.352Z,83.57
2018-01-10T10:27:09.705Z,66.53
2018-01-10T10:29:38.092Z,94.90
2018-01-10T10:32:06.461Z,78.60
2018-01-10T10:34:34.822Z,87.43
2018-01-10T10:37:03.197Z,118.10
2018-01-10T10:39:31.637Z,61.80
2018-01-10T10:42:00.049Z,75.73
2018-01-10T10:44:28.502Z,66.77
2018-01-10T10:46:56.860Z,67.67
2018-01-10T10:49:25.656Z,75.40
2018-01-10T10:51:54.091Z,72.80
2018-01-10T10:54:22.467Z,67.70
2018-01-10T10:56:50.819Z,63.17
2018-01-10T10:59:19.209Z,60.67
2018-01-10T11:01:47.581Z,78.67
2018-01-10T11:04:15.940Z,81.63
2018-01-10T11:06:44.303Z,68.80
2018-01-10T11:09:13.169Z,62.13
2018-01-10T11:11:41.951Z,73.90
2018-01-10T11:14:10.316Z,64.53
2018-01-10T11:16:38.757Z,68.33
2018-01-10T11:19:07.383Z,100.13
2018-01-10T11:21:35.750Z,96.30
2018-01-10T11:24:04.115Z,82.80
2018-01-10T11:26:32.470Z,77.57
2018-01-10T11:29:00.822Z,75.17
2018-01-10T11:31:29.183Z,74.50
2018-01-10T11:33:57.591Z,71.43
2018-01-10T11:36:26.355Z,70.90
2018-01-10T11:38:54.712Z,64.10
2018-01-10T11:41:23.093Z,68.90
2018-01-10T11:43:51.542Z,92.70
2018-01-10T11:46:20.031Z,84.00
2018-01-10T11:48:48.433Z,79.50
2018-01-10T11:51:16.818Z,76.73
2018-01-10T11:53:45.208Z,78.20
2018-01-10T11:56:13.577Z,77.70
2018-01-10T11:58:41.990Z,77.97
2018-01-10T12:01:10.765Z,93.47
2018-01-10T12:03:39.120Z,80.60
2018-01-10T12:06:07.489Z,108.23
2018-01-10T12:08:35.867Z,89.83
2018-01-10T12:11:04.352Z,80.13
2018-01-10T12:13:32.737Z,76.27
2018-01-10T12:16:01.375Z,83.97
2018-01-10T12:18:29.883Z,87.53
2018-01-10T12:20:58.286Z,77.43
2018-01-10T12:23:26.740Z,71.17
2018-01-10T12:25:55.118Z,71.53
2018-01-10T12:28:23.530Z,81.80
2018-01-10T12:30:51.905Z,97.33
2018-01-10T12:33:20.293Z,92.83
2018-01-10T12:35:48.660Z,96.87
2018-01-10T12:38:17.133Z,87.20
2018-01-10T12:40:45.485Z,90.00
2018-01-10T12:43:13.843Z,102.90
2018-01-10T12:45:42.274Z,75.17
2018-01-10T12:48:12.235Z,78.67
2018-01-10T12:50:40.720Z,85.97
2018-01-10T12:53:09.552Z,111.53
2018-01-10T12:55:37.910Z,113.50
2018-01-10T12:58:06.295Z,114.20
2018-01-10T13:00:34.710Z,116.10
2018-01-10T13:03:03.088Z,122.30
2018-01-10T13:05:31.438Z,150.63
2018-01-10T13:07:59.855Z,122.77
2018-01-10T13:10:28.283Z,127.80
2018-01-10T13:12:56.693Z,116.20
2018-01-10T13:15:25.086Z,116.50
2018-01-10T13:17:53.650Z,116.40
2018-01-10T13:20:22.036Z,120.70
2018-01-10T13:22:51.531Z,126.67
2018-01-10T13:25:20.635Z,157.10
2018-01-10T13:27:49.019Z,134.63
2018-01-10T13:30:17.391Z,117.53
2018-01-10T13:32:45.763Z,125.37
2018-01-10T13:35:14.129Z,148.67
2018-01-10T13:37:42.485Z,105.10
2018-01-10T13:40:10.851Z,126.23
2018-01-10T13:42:39.615Z,113.20
2018-01-10T13:45:07.979Z,114.73
2018-01-10T13:47:36.372Z,113.23
2018-01-10T13:50:04.807Z,88.17
2018-01-10T13:52:33.197Z,144.07
2018-01-10T13:55:01.567Z,95.73
2018-01-10T13:57:29.955Z,142.63
2018-01-10T13:59:58.372Z,112.43
2018-01-10T14:02:26.740Z,210.30
2018-01-10T14:04:55.118Z,115.87
2018-01-10T14:07:23.558Z,137.37
2018-01-10T14:09:51.976Z,113.00
2018-01-10T14:12:20.340Z,146.37
2018-01-10T14:14:48.747Z,133.60
2018-01-10T14:17:17.127Z,122.40
2018-01-10T14:19:45.505Z,163.53
2018-01-10T14:22:13.872Z,109.87
2018-01-10T14:24:42.474Z,215.53
2018-01-10T14:27:11.228Z,109.57
2018-01-10T14:29:39.624Z,106.67
2018-01-10T14:32:07.992Z,138.13
2018-01-10T14:34:36.344Z,154.90
2018-01-10T14:37:04.720Z,123.43
2018-01-10T14:39:33.122Z,94.33
2018-01-10T14:42:01.492Z,138.63
2018-01-10T14:44:29.901Z,92.10
2018-01-10T14:46:58.280Z,173.83
2018-01-10T14:49:26.740Z,202.53
2018-01-10T14:51:55.106Z,192.40
2018-01-10T14:54:23.479Z,127.67
2018-01-10T14:56:51.836Z,168.20
2018-01-10T14:59:20.191Z,194.43
2018-01-10T15:01:48.712Z,148.50
2018-01-10T15:04:17.063Z,141.10
2018-01-10T15:06:45.849Z,142.17
2018-01-10T15:09:14.703Z,189.60
2018-01-10T15:11:43.074Z,124.60
2018-01-10T15:14:11.453Z,118.43
2018-01-10T15:16:39.816Z,228.33
2018-01-10T15:19:08.193Z,172.00
2018-01-10T15:21:36.559Z,235.63
2018-01-10T15:24:04.903Z,120.63
2018-01-10T15:26:33.784Z,191.40
2018-01-10T15:29:02.233Z,118.67
2018-01-10T15:31:30.859Z,132.90
2018-01-10T15:33:59.621Z,140.87
2018-01-10T15:36:28.000Z,145.43
2018-01-10T15:38:56.472Z,172.97
2018-01-10T15:41:24.835Z,138.73
2018-01-10T15:43:53.284Z,107.73
2018-01-10T15:46:21.677Z,123.60
2018-01-10T15:48:50.088Z,120.00
2018-01-10T15:51:18.448Z,164.87
2018-01-10T15:53:46.808Z,176.40
2018-01-10T15:56:15.232Z,180.43
2018-01-10T15:58:43.709Z,226.73
2018-01-10T16:01:12.060Z,145.93
2018-01-10T16:03:40.435Z,186.60
2018-01-10T16:06:08.838Z,131.53
2018-01-10T16:08:37.205Z,196.60
2018-01-10T16:11:05.594Z,159.53
2018-01-10T16:13:33.980Z,262.40
2018-01-10T16:16:02.360Z,211.10
2018-01-10T16:18:30.707Z,158.57
2018-01-10T16:20:59.099Z,142.13
2018-01-10T16:23:27.482Z,163.60
2018-01-10T16:25:55.860Z,188.87
2018-01-10T16:28:24.249Z,176.20
2018-01-10T16:30:52.607Z,102.80
2018-01-10T16:33:20.999Z,169.83
2018-01-10T16:35:49.360Z,185.63
2018-01-10T16:38:17.756Z,279.40
2018-01-10T16:40:46.165Z,166.03
2018-01-10T16:43:14.524Z,159.77
2018-01-10T16:45:42.913Z,227.13
2018-01-10T16:48:11.292Z,217.70
2018-01-10T16:50:39.647Z,201.27
2018-01-10T16:53:08.023Z,182.97
2018-01-10T16:55:36.408Z,152.30
2018-01-10T16:58:04.834Z,157.33
2018-01-10T17:00:33.592Z,121.73
2018-01-10T17:03:01.949Z,122.67
2018-01-10T17:05:30.303Z,101.37
2018-01-10T17:07:58.775Z,144.83
2018-01-10T17:10:27.215Z,121.47
2018-01-10T17:12:55.562Z,152.90
2018-01-10T17:15:24.031Z,111.17
2018-01-10T17:17:52.380Z,116.90
2018-01-10T17:20:21.168Z,111.77
2018-01-10T17:22:49.924Z,134.80
2018-01-10T17:25:18.287Z,109.93
2018-01-10T17:27:46.701Z,103.23
2018-01-10T17:30:15.140Z,121.30
2018-01-10T17:32:43.528Z,367.17
2018-01-10T17:35:11.905Z,135.00
2018-01-10T17:37:40.285Z,290.27
2018-01-10T17:40:08.648Z,188.17
2018-01-10T17:42:37.005Z,93.30
2018-01-10T17:45:05.387Z,172.03
2018-01-10T17:47:33.757Z,203.13
2018-01-10T17:50:02.535Z,301.63
2018-01-10T17:52:31.377Z,277.23
2018-01-10T17:54:59.738Z,360.67
2018-01-10T17:57:28.170Z,234.57
2018-01-10T17:59:56.503Z,207.90
2018-01-10T18:02:24.871Z,231.63
2018-01-10T18:04:53.244Z,132.27
2018-01-10T18:07:21.639Z,220.23
2018-01-10T18:09:50.011Z,163.20
2018-01-10T18:12:18.521Z,253.03
2018-01-10T18:14:47.098Z,113.83
2018-01-10T18:17:15.462Z,301.30
2018-01-10T18:19:43.822Z,159.90
2018-01-10T18:22:12.223Z,159.60
2018-01-10T18:24:40.584Z,154.03
2018-01-10T18:27:08.953Z,139.57
2018-01-10T18:29:37.360Z,157.57
2018-01-10T18:32:05.756Z,181.60
2018-01-10T18:34:34.100Z,254.53
2018-01-10T18:37:02.557Z,179.77
2018-01-10T18:39:31.336Z,240.33
2018-01-10T18:42:00.185Z,337.57
2018-01-10T18:44:28.554Z,264.17
2018-01-10T18:46:56.912Z,207.20
2018-01-10T18:49:25.268Z,277.77
2018-01-10T18:51:54.952Z,263.70
2018-01-10T18:54:23.299Z,302.10
2018-01-10T18:56:51.724Z,298.13
2018-01-10T18:59:20.551Z,319.20
2018-01-10T19:01:48.927Z,222.13
2018-01-10T19:04:17.377Z,275.53
2018-01-10T19:06:46.223Z,279.83
2018-01-10T19:09:14.698Z,248.37
2018-01-10T19:11:43.144Z,156.67
2018-01-10T19:14:11.568Z,178.63
2018-01-10T19:16:39.973Z,171.97
2018-01-10T19:19:08.321Z,283.37
2018-01-10T19:21:36.817Z,182.17
2018-01-10T19:24:05.185Z,298.17
2018-01-10T19:26:33.613Z,271.93
2018-01-10T19:29:02.371Z,180.70
2018-01-10T19:31:31.407Z,151.43
2018-01-10T19:34:00.002Z,286.53
2018-01-10T19:36:28.394Z,173.23
2018-01-10T19:38:56.851Z,278.17
2018-01-10T19:41:25.216Z,213.37
2018-01-10T19:43:53.964Z,246.27
2018-01-10T19:46:22.440Z,219.60
2018-01-10T19:48:51.008Z,161.90
2018-01-10T19:51:19.370Z,177.13
2018-01-10T19:53:47.730Z,118.13
2018-01-10T19:56:16.107Z,121.53
2018-01-10T19:58:44.903Z,194.07
2018-01-10T20:01:13.313Z,154.87
2018-01-10T20:03:41.712Z,126.20
2018-01-10T20:06:10.069Z,143.60
2018-01-10T20:08:38.457Z,210.70
2018-01-10T20:11:06.848Z,145.60
2018-01-10T20:13:35.207Z,134.13
2018-01-10T20:16:03.701Z,153.97
2018-01-10T20:18:32.193Z,147.97
2018-01-10T20:21:00.623Z,434.67
2018-01-10T20:23:29.037Z,148.40
2018-01-10T20:25:57.431Z,183.17
2018-01-10T20:28:25.792Z,197.07
2018-01-10T20:30:54.174Z,238.53
2018-01-10T20:33:22.521Z,160.87
2018-01-10T20:35:50.904Z,202.53
2018-01-10T20:38:19.259Z,162.23
2018-01-10T20:40:48.003Z,151.23
2018-01-10T20:43:16.395Z,193.30
2018-01-10T20:45:44.756Z,207.47
2018-01-10T20:48:13.244Z,247.90
2018-01-10T20:50:41.646Z,185.37
2018-01-10T20:53:10.415Z,143.60
2018-01-10T20:55:38.884Z,130.83
2018-01-10T20:58:07.228Z,213.20
2018-01-10T21:00:35.605Z,137.57
2018-01-10T21:03:04.026Z,184.10
2018-01-10T21:05:32.474Z,178.23
2018-01-10T21:08:00.848Z,143.77
2018-01-10T21:10:29.210Z,210.97
2018-01-10T21:12:57.980Z,181.17
2018-01-10T21:15:26.735Z,171.97
2018-01-10T21:17:55.124Z,195.57
2018-01-10T21:20:23.495Z,237.80
2018-01-10T21:22:51.880Z,172.83
2018-01-10T21:25:20.350Z,198.03
2018-01-10T21:27:48.711Z,226.77
2018-01-10T21:30:17.059Z,214.53
2018-01-10T21:32:45.866Z,248.00
2018-01-10T21:35:14.869Z,230.63
2018-01-10T21:37:43.264Z,248.97
2018-01-10T21:40:11.608Z,158.37
2018-01-10T21:42:39.970Z,187.73
2018-01-10T21:45:08.927Z,289.20
2018-01-10T21:47:37.287Z,227.93
2018-01-10T21:50:05.774Z,154.03
2018-01-10T21:52:34.156Z,205.03
2018-01-10T21:55:02.520Z,182.97
2018-01-10T21:57:30.891Z,214.13
2018-01-10T21:59:59.246Z,210.63
2018-01-10T22:02:28.066Z,296.17
2018-01-10T22:04:56.384Z,198.30
2018-01-10T22:07:24.770Z,275.90
2018-01-10T22:09:53.290Z,326.63
2018-01-10T22:12:22.265Z,210.50
2018-01-10T22:14:50.634Z,278.67
2018-01-10T22:17:19.480Z,236.03
2018-01-10T22:19:47.836Z,172.97
2018-01-10T22:22:16.225Z,335.87
2018-01-10T22:24:44.619Z,357.10
2018-01-10T22:27:13.013Z,373.57
2018-01-10T22:29:41.446Z,431.77
2018-01-10T22:32:09.796Z,279.60
2018-01-10T22:34:38.559Z,353.20
2018-01-10T22:37:06.921Z,396.90
2018-01-10T22:39:35.296Z,255.57
2018-01-10T22:42:03.654Z,246.23
2018-01-10T22:44:32.018Z,453.77
2018-01-10T22:47:00.396Z,244.73
2018-01-10T22:49:28.756Z,276.87
2018-01-10T22:51:58.068Z,469.27
2018-01-10T22:54:26.429Z,377.40
2018-01-10T22:56:55.216Z,421.93
2018-01-10T22:59:24.296Z,232.30
2018-01-10T23:01:52.654Z,245.93
2018-01-10T23:04:21.067Z,285.83
2018-01-10T23:06:50.047Z,220.03
2018-01-10T23:09:18.422Z,277.63
2018-01-10T23:11:46.782Z,219.97
2018-01-10T23:14:15.155Z,188.50
2018-01-10T23:16:43.534Z,300.10
2018-01-10T23:19:11.919Z,250.70
2018-01-10T23:21:40.295Z,219.60
2018-01-10T23:24:08.663Z,259.80
2018-01-10T23:26:37.164Z,338.17
2018-01-10T23:29:05.877Z,406.80
2018-01-10T23:31:34.340Z,281.57
2018-01-10T23:34:02.715Z,362.17
2018-01-10T23:36:31.085Z,240.67
2018-01-10T23:38:59.533Z,249.23
2018-01-10T23:41:27.899Z,277.03
2018-01-10T23:43:56.251Z,288.67
2018-01-10T23:46:24.632Z,266.30
2018-01-10T23:48:53.389Z,268.67
2018-01-10T23:51:21.871Z,164.27
2018-01-10T23:53:50.249Z,399.87
2018-01-10T23:56:18.603Z,278.67
2018-01-10T23:58:46.991Z,218.30
